sensor_id;sensor_type;location;lat;lon;timestamp;pressure;altitude;pressure_sealevel;temperature;humidity
23164;BME280;31429;42.674;23.350;2023-04-25T00:00:20;94018.25;;;11.26;100.00
23164;BME280;31429;42.674;23.350;2023-04-25T00:01:21;94020.16;;;11.23;100.00
23164;BME280;31429;42.674;23.350;2023-04-25T00:02:24;94023.03;;;11.32;100.00
23164;BME280;31429;42.674;23.350;2023-04-25T00:03:25;94017.84;;;11.34;100.00
23164;BME280;31429;42.674;23.350;2023-04-25T00:04:26;94011.84;;;11.35;100.00
23164;BME280;31429;42.674;23.350;2023-04-25T00:05:29;94018.69;;;11.34;100.00
23164;BME280;31429;42.674;23.350;2023-04-25T00:06:29;94018.84;;;11.31;100.00
23164;BME280;31429;42.674;23.350;2023-04-25T00:07:32;94014.56;;;11.32;100.00
23164;BME280;31429;42.674;23.350;2023-04-25T00:08:32;94005.22;;;11.31;100.00
23164;BME280;31429;42.674;23.350;2023-04-25T00:09:33;94005.06;;;11.34;100.00
23164;BME280;31429;42.674;23.350;2023-04-25T00:10:34;94002.56;;;11.32;100.00
23164;BME280;31429;42.674;23.350;2023-04-25T00:11:34;93999.19;;;11.32;100.00
23164;BME280;31429;42.674;23.350;2023-04-25T00:12:35;93997.44;;;11.32;100.00
23164;BME280;31429;42.674;23.350;2023-04-25T00:13:36;93996.22;;;11.39;100.00
23164;BME280;31429;42.674;23.350;2023-04-25T00:14:36;93986.56;;;11.44;100.00
23164;BME280;31429;42.674;23.350;2023-04-25T00:15:37;93988.28;;;11.44;100.00
23164;BME280;31429;42.674;23.350;2023-04-25T00:16:39;93982.94;;;11.48;100.00
23164;BME280;31429;42.674;23.350;2023-04-25T00:17:41;93979.75;;;11.61;100.00
23164;BME280;31429;42.674;23.350;2023-04-25T00:18:42;93976.91;;;11.49;100.00
23164;BME280;31429;42.674;23.350;2023-04-25T00:19:43;93979.22;;;11.54;100.00
23164;BME280;31429;42.674;23.350;2023-04-25T00:20:48;93973.84;;;11.59;100.00
23164;BME280;31429;42.674;23.350;2023-04-25T00:21:48;93971.41;;;11.57;100.00
23164;BME280;31429;42.674;23.350;2023-04-25T00:22:49;93966.50;;;11.52;100.00
23164;BME280;31429;42.674;23.350;2023-04-25T00:23:50;93966.19;;;11.59;100.00
23164;BME280;31429;42.674;23.350;2023-04-25T00:24:50;93971.88;;;11.48;100.00
23164;BME280;31429;42.674;23.350;2023-04-25T00:25:53;93970.47;;;11.42;100.00
23164;BME280;31429;42.674;23.350;2023-04-25T00:26:54;93971.97;;;11.46;100.00
23164;BME280;31429;42.674;23.350;2023-04-25T00:27:55;93977.19;;;11.61;100.00
23164;BME280;31429;42.674;23.350;2023-04-25T00:28:55;93975.75;;;11.86;100.00
23164;BME280;31429;42.674;23.350;2023-04-25T00:29:56;93972.69;;;11.64;100.00
23164;BME280;31429;42.674;23.350;2023-04-25T00:30:57;93971.56;;;11.54;100.00
23164;BME280;31429;42.674;23.350;2023-04-25T00:31:57;93964.72;;;11.70;100.00
23164;BME280;31429;42.674;23.350;2023-04-25T00:32:58;93959.59;;;11.54;100.00
23164;BME280;31429;42.674;23.350;2023-04-25T00:33:59;93958.09;;;11.50;100.00
23164;BME280;31429;42.674;23.350;2023-04-25T00:34:59;93958.84;;;11.68;100.00
23164;BME280;31429;42.674;23.350;2023-04-25T00:36:02;93971.56;;;11.54;100.00
23164;BME280;31429;42.674;23.350;2023-04-25T00:37:02;93966.88;;;11.46;100.00
23164;BME280;31429;42.674;23.350;2023-04-25T00:38:03;93962.53;;;11.47;100.00
23164;BME280;31429;42.674;23.350;2023-04-25T00:39:03;93961.06;;;11.43;100.00
23164;BME280;31429;42.674;23.350;2023-04-25T00:40:06;93958.91;;;11.35;100.00
23164;BME280;31429;42.674;23.350;2023-04-25T00:41:07;93959.00;;;11.34;100.00
23164;BME280;31429;42.674;23.350;2023-04-25T00:42:07;93963.78;;;11.40;100.00
23164;BME280;31429;42.674;23.350;2023-04-25T00:43:08;93962.31;;;11.51;100.00
23164;BME280;31429;42.674;23.350;2023-04-25T00:44:09;93959.59;;;11.54;100.00
23164;BME280;31429;42.674;23.350;2023-04-25T00:45:13;93956.63;;;11.46;100.00
23164;BME280;31429;42.674;23.350;2023-04-25T00:46:15;93958.59;;;11.57;100.00
23164;BME280;31429;42.674;23.350;2023-04-25T00:47:15;93958.16;;;11.65;100.00
23164;BME280;31429;42.674;23.350;2023-04-25T00:48:17;93956.59;;;11.62;100.00
23164;BME280;31429;42.674;23.350;2023-04-25T00:49:17;93949.09;;;11.43;100.00
23164;BME280;31429;42.674;23.350;2023-04-25T00:50:18;93955.78;;;11.46;100.00
23164;BME280;31429;42.674;23.350;2023-04-25T00:51:21;93953.94;;;11.32;100.00
23164;BME280;31429;42.674;23.350;2023-04-25T00:52:22;93960.00;;;11.31;100.00
23164;BME280;31429;42.674;23.350;2023-04-25T00:53:24;93953.78;;;11.20;100.00
23164;BME280;31429;42.674;23.350;2023-04-25T00:54:25;93958.06;;;11.19;100.00
23164;BME280;31429;42.674;23.350;2023-04-25T00:55:26;93952.91;;;11.21;100.00
23164;BME280;31429;42.674;23.350;2023-04-25T00:56:26;93951.66;;;11.12;100.00
23164;BME280;31429;42.674;23.350;2023-04-25T00:57:27;93953.28;;;11.13;100.00
23164;BME280;31429;42.674;23.350;2023-04-25T00:58:29;93953.28;;;11.13;100.00
23164;BME280;31429;42.674;23.350;2023-04-25T00:59:30;93951.66;;;11.12;100.00
23164;BME280;31429;42.674;23.350;2023-04-25T01:00:31;93959.22;;;11.14;100.00
23164;BME280;31429;42.674;23.350;2023-04-25T01:01:32;93960.38;;;11.08;100.00
23164;BME280;31429;42.674;23.350;2023-04-25T01:02:33;93958.34;;;11.15;100.00
23164;BME280;31429;42.674;23.350;2023-04-25T01:03:37;93968.63;;;11.13;100.00
23164;BME280;31429;42.674;23.350;2023-04-25T01:04:41;93965.41;;;11.10;100.00
23164;BME280;31429;42.674;23.350;2023-04-25T01:05:42;93958.22;;;11.01;100.00
23164;BME280;31429;42.674;23.350;2023-04-25T01:06:44;93955.16;;;10.94;100.00
23164;BME280;31429;42.674;23.350;2023-04-25T01:07:45;93964.56;;;10.93;100.00
23164;BME280;31429;42.674;23.350;2023-04-25T01:08:47;93954.09;;;10.98;100.00
23164;BME280;31429;42.674;23.350;2023-04-25T01:09:47;93962.41;;;11.02;100.00
23164;BME280;31429;42.674;23.350;2023-04-25T01:10:48;93959.84;;;11.02;100.00
23164;BME280;31429;42.674;23.350;2023-04-25T01:11:49;93945.03;;;10.92;100.00
23164;BME280;31429;42.674;23.350;2023-04-25T01:12:50;93937.88;;;10.82;100.00
23164;BME280;31429;42.674;23.350;2023-04-25T01:13:51;93936.56;;;10.75;100.00
23164;BME280;31429;42.674;23.350;2023-04-25T01:14:51;93939.84;;;10.77;100.00
23164;BME280;31429;42.674;23.350;2023-04-25T01:15:52;93936.00;;;10.85;100.00
23164;BME280;31429;42.674;23.350;2023-04-25T01:16:53;93927.44;;;10.86;100.00
23164;BME280;31429;42.674;23.350;2023-04-25T01:17:54;93921.19;;;10.92;100.00
23164;BME280;31429;42.674;23.350;2023-04-25T01:18:55;93920.66;;;10.85;100.00
23164;BME280;31429;42.674;23.350;2023-04-25T01:19:56;93921.22;;;10.75;100.00
23164;BME280;31429;42.674;23.350;2023-04-25T01:21:02;93916.47;;;10.67;100.00
23164;BME280;31429;42.674;23.350;2023-04-25T01:22:04;93921.69;;;10.66;100.00
23164;BME280;31429;42.674;23.350;2023-04-25T01:23:05;93915.06;;;10.62;100.00
23164;BME280;31429;42.674;23.350;2023-04-25T01:24:06;93922.75;;;10.62;100.00
23164;BME280;31429;42.674;23.350;2023-04-25T01:25:08;93923.50;;;10.64;100.00
23164;BME280;31429;42.674;23.350;2023-04-25T01:26:10;93924.25;;;10.66;100.00
23164;BME280;31429;42.674;23.350;2023-04-25T01:27:11;93926.81;;;10.66;100.00
23164;BME280;31429;42.674;23.350;2023-04-25T01:28:12;93920.84;;;10.65;100.00
23164;BME280;31429;42.674;23.350;2023-04-25T01:29:13;93921.75;;;10.64;100.00
23164;BME280;31429;42.674;23.350;2023-04-25T01:30:14;93915.22;;;10.59;100.00
23164;BME280;31429;42.674;23.350;2023-04-25T01:31:15;93915.47;;;10.54;100.00
23164;BME280;31429;42.674;23.350;2023-04-25T01:32:17;93914.44;;;10.58;100.00
23164;BME280;31429;42.674;23.350;2023-04-25T01:33:19;93907.28;;;10.48;100.00
23164;BME280;31429;42.674;23.350;2023-04-25T01:34:21;93903.16;;;10.45;100.00
23164;BME280;31429;42.674;23.350;2023-04-25T01:35:22;93899.28;;;10.38;100.00
23164;BME280;31429;42.674;23.350;2023-04-25T01:36:25;93908.81;;;10.34;100.00
23164;BME280;31429;42.674;23.350;2023-04-25T01:37:27;93904.28;;;10.39;100.00
23164;BME280;31429;42.674;23.350;2023-04-25T01:38:28;93921.53;;;10.69;100.00
23164;BME280;31429;42.674;23.350;2023-04-25T01:39:29;93919.66;;;10.88;100.00
23164;BME280;31429;42.674;23.350;2023-04-25T01:40:30;93922.22;;;10.72;100.00
23164;BME280;31429;42.674;23.350;2023-04-25T01:41:32;93930.22;;;10.49;100.00
23164;BME280;31429;42.674;23.350;2023-04-25T01:42:36;93918.91;;;10.53;100.00
23164;BME280;31429;42.674;23.350;2023-04-25T01:43:37;93919.75;;;10.54;100.00
23164;BME280;31429;42.674;23.350;2023-04-25T01:44:38;93917.59;;;10.46;100.00
23164;BME280;31429;42.674;23.350;2023-04-25T01:45:38;93919.41;;;10.44;100.00
23164;BME280;31429;42.674;23.350;2023-04-25T01:46:42;93919.31;;;10.46;100.00
23164;BME280;31429;42.674;23.350;2023-04-25T01:47:44;93920.88;;;10.48;100.00
23164;BME280;31429;42.674;23.350;2023-04-25T01:48:49;93922.03;;;10.43;100.00
23164;BME280;31429;42.674;23.350;2023-04-25T01:49:49;93914.94;;;10.48;100.00
23164;BME280;31429;42.674;23.350;2023-04-25T01:50:50;93919.63;;;10.39;100.00
23164;BME280;31429;42.674;23.350;2023-04-25T01:51:52;93925.72;;;10.37;100.00
23164;BME280;31429;42.674;23.350;2023-04-25T01:52:53;93916.56;;;10.33;100.00
23164;BME280;31429;42.674;23.350;2023-04-25T01:53:55;93920.91;;;10.31;100.00
23164;BME280;31429;42.674;23.350;2023-04-25T01:54:56;93925.44;;;10.26;100.00
23164;BME280;31429;42.674;23.350;2023-04-25T01:55:57;93932.56;;;10.19;100.00
23164;BME280;31429;42.674;23.350;2023-04-25T01:56:58;93928.44;;;10.17;100.00
23164;BME280;31429;42.674;23.350;2023-04-25T01:57:58;93935.34;;;10.15;100.00
23164;BME280;31429;42.674;23.350;2023-04-25T01:59:00;93939.75;;;10.11;100.00
23164;BME280;31429;42.674;23.350;2023-04-25T02:00:03;93942.41;;;10.10;100.00
23164;BME280;31429;42.674;23.350;2023-04-25T02:01:06;93933.75;;;10.12;100.00
23164;BME280;31429;42.674;23.350;2023-04-25T02:02:06;93934.09;;;10.05;100.00
23164;BME280;31429;42.674;23.350;2023-04-25T02:03:07;93925.25;;;9.95;100.00
23164;BME280;31429;42.674;23.350;2023-04-25T02:04:08;93921.13;;;9.92;100.00
23164;BME280;31429;42.674;23.350;2023-04-25T02:05:09;93920.97;;;9.95;100.00
23164;BME280;31429;42.674;23.350;2023-04-25T02:06:10;93917.44;;;9.98;100.00
23164;BME280;31429;42.674;23.350;2023-04-25T02:07:12;93921.03;;;9.94;100.00
23164;BME280;31429;42.674;23.350;2023-04-25T02:08:13;93928.25;;;10.03;100.00
23164;BME280;31429;42.674;23.350;2023-04-25T02:09:13;93921.97;;;9.93;100.00
23164;BME280;31429;42.674;23.350;2023-04-25T02:10:14;93912.78;;;9.89;100.00
23164;BME280;31429;42.674;23.350;2023-04-25T02:11:15;93918.97;;;9.85;100.00
23164;BME280;31429;42.674;23.350;2023-04-25T02:12:16;93923.38;;;9.81;100.00
23164;BME280;31429;42.674;23.350;2023-04-25T02:13:16;93923.81;;;9.89;100.00
23164;BME280;31429;42.674;23.350;2023-04-25T02:14:17;93911.28;;;9.85;100.00
23164;BME280;31429;42.674;23.350;2023-04-25T02:15:18;93911.28;;;9.85;100.00
23164;BME280;31429;42.674;23.350;2023-04-25T02:16:18;93908.56;;;9.88;100.00
23164;BME280;31429;42.674;23.350;2023-04-25T02:17:19;93906.19;;;9.85;100.00
23164;BME280;31429;42.674;23.350;2023-04-25T02:18:21;93900.84;;;9.89;100.00
23164;BME280;31429;42.674;23.350;2023-04-25T02:19:22;93907.63;;;9.90;100.00
23164;BME280;31429;42.674;23.350;2023-04-25T02:20:23;93909.88;;;9.79;100.00
23164;BME280;31429;42.674;23.350;2023-04-25T02:21:24;93910.75;;;9.78;100.00
23164;BME280;31429;42.674;23.350;2023-04-25T02:22:28;93908.41;;;9.73;100.00
23164;BME280;31429;42.674;23.350;2023-04-25T02:23:30;93902.50;;;9.73;100.00
23164;BME280;31429;42.674;23.350;2023-04-25T02:24:31;93901.53;;;9.75;100.00
23164;BME280;31429;42.674;23.350;2023-04-25T02:25:34;93890.88;;;9.85;100.00
23164;BME280;31429;42.674;23.350;2023-04-25T02:26:34;93890.69;;;9.88;100.00
23164;BME280;31429;42.674;23.350;2023-04-25T02:27:35;93885.81;;;9.83;100.00
23164;BME280;31429;42.674;23.350;2023-04-25T02:28:36;93884.50;;;9.76;100.00
23164;BME280;31429;42.674;23.350;2023-04-25T02:29:37;93882.28;;;9.68;100.00
23164;BME280;31429;42.674;23.350;2023-04-25T02:30:37;93882.53;;;9.64;100.00
23164;BME280;31429;42.674;23.350;2023-04-25T02:31:38;93886.19;;;9.58;100.00
23164;BME280;31429;42.674;23.350;2023-04-25T02:32:39;93883.84;;;9.54;100.00
23164;BME280;31429;42.674;23.350;2023-04-25T02:33:39;93884.00;;;9.51;100.00
23164;BME280;31429;42.674;23.350;2023-04-25T02:34:40;93884.91;;;9.50;100.00
23164;BME280;31429;42.674;23.350;2023-04-25T02:35:41;93880.94;;;9.61;100.00
23164;BME280;31429;42.674;23.350;2023-04-25T02:36:41;93876.59;;;9.63;100.00
23164;BME280;31429;42.674;23.350;2023-04-25T02:37:43;93879.72;;;9.51;100.00
23164;BME280;31429;42.674;23.350;2023-04-25T02:38:44;93879.94;;;9.47;100.00
23164;BME280;31429;42.674;23.350;2023-04-25T02:39:45;93878.09;;;9.50;100.00
23164;BME280;31429;42.674;23.350;2023-04-25T02:40:45;93873.44;;;9.58;100.00
23164;BME280;31429;42.674;23.350;2023-04-25T02:41:46;93879.81;;;9.67;100.00
23164;BME280;31429;42.674;23.350;2023-04-25T02:42:47;93878.91;;;9.68;100.00
23164;BME280;31429;42.674;23.350;2023-04-25T02:43:47;93879.06;;;9.65;100.00
23164;BME280;31429;42.674;23.350;2023-04-25T02:44:48;93886.72;;;9.65;100.00
23164;BME280;31429;42.674;23.350;2023-04-25T02:45:48;93884.16;;;9.48;100.00
23164;BME280;31429;42.674;23.350;2023-04-25T02:46:49;93887.13;;;9.39;100.00
23164;BME280;31429;42.674;23.350;2023-04-25T02:47:50;93877.41;;;9.47;100.00
23164;BME280;31429;42.674;23.350;2023-04-25T02:48:50;93874.00;;;9.46;100.00
23164;BME280;31429;42.674;23.350;2023-04-25T02:49:51;93887.44;;;9.33;100.00
23164;BME280;31429;42.674;23.350;2023-04-25T02:50:52;93885.84;;;9.30;100.00
23164;BME280;31429;42.674;23.350;2023-04-25T02:51:52;93877.41;;;9.28;100.00
23164;BME280;31429;42.674;23.350;2023-04-25T02:52:54;93882.47;;;9.30;100.00
23164;BME280;31429;42.674;23.350;2023-04-25T02:53:55;93869.44;;;9.36;100.00
23164;BME280;31429;42.674;23.350;2023-04-25T02:54:55;93867.09;;;9.48;100.00
23164;BME280;31429;42.674;23.350;2023-04-25T02:55:56;93862.00;;;9.48;100.00
23164;BME280;31429;42.674;23.350;2023-04-25T02:56:58;93864.66;;;9.47;100.00
23164;BME280;31429;42.674;23.350;2023-04-25T02:57:59;93862.28;;;9.42;100.00
23164;BME280;31429;42.674;23.350;2023-04-25T02:59:00;93861.50;;;9.42;100.00
23164;BME280;31429;42.674;23.350;2023-04-25T03:00:00;93859.97;;;9.38;100.00
23164;BME280;31429;42.674;23.350;2023-04-25T03:01:01;93872.25;;;9.30;100.00
23164;BME280;31429;42.674;23.350;2023-04-25T03:02:01;93869.50;;;9.34;100.00
23164;BME280;31429;42.674;23.350;2023-04-25T03:03:02;93863.72;;;9.31;100.00
23164;BME280;31429;42.674;23.350;2023-04-25T03:04:03;93869.31;;;9.20;100.00
23164;BME280;31429;42.674;23.350;2023-04-25T03:05:04;93877.47;;;9.09;100.00
23164;BME280;31429;42.674;23.350;2023-04-25T03:06:05;93873.25;;;9.08;100.00
23164;BME280;31429;42.674;23.350;2023-04-25T03:07:06;93867.25;;;9.09;100.00
23164;BME280;31429;42.674;23.350;2023-04-25T03:08:08;93868.06;;;9.29;100.00
23164;BME280;31429;42.674;23.350;2023-04-25T03:09:10;93859.22;;;9.36;100.00
23164;BME280;31429;42.674;23.350;2023-04-25T03:10:11;93860.66;;;9.41;100.00
23164;BME280;31429;42.674;23.350;2023-04-25T03:11:12;93855.47;;;9.43;100.00
23164;BME280;31429;42.674;23.350;2023-04-25T03:12:13;93859.69;;;9.44;100.00
23164;BME280;31429;42.674;23.350;2023-04-25T03:13:13;93860.81;;;9.38;100.00
23164;BME280;31429;42.674;23.350;2023-04-25T03:14:14;93873.00;;;9.32;100.00
23164;BME280;31429;42.674;23.350;2023-04-25T03:15:15;93868.19;;;9.25;100.00
23164;BME280;31429;42.674;23.350;2023-04-25T03:16:17;93863.47;;;9.18;100.00
23164;BME280;31429;42.674;23.350;2023-04-25T03:17:17;93870.22;;;9.19;100.00
23164;BME280;31429;42.674;23.350;2023-04-25T03:18:18;93859.44;;;9.31;100.00
23164;BME280;31429;42.674;23.350;2023-04-25T03:19:19;93868.06;;;9.29;100.00
23164;BME280;31429;42.674;23.350;2023-04-25T03:20:20;93867.31;;;9.27;100.00
23164;BME280;31429;42.674;23.350;2023-04-25T03:21:21;93867.44;;;9.23;100.00
23164;BME280;31429;42.674;23.350;2023-04-25T03:22:22;93864.44;;;9.15;100.00
23164;BME280;31429;42.674;23.350;2023-04-25T03:23:24;93863.88;;;9.09;100.00
23164;BME280;31429;42.674;23.350;2023-04-25T03:24:24;93858.78;;;9.09;100.00
23164;BME280;31429;42.674;23.350;2023-04-25T03:25:27;93867.22;;;9.11;100.00
23164;BME280;31429;42.674;23.350;2023-04-25T03:26:28;93865.13;;;9.19;100.00
23164;BME280;31429;42.674;23.350;2023-04-25T03:27:28;93863.94;;;9.26;100.00
23164;BME280;31429;42.674;23.350;2023-04-25T03:28:29;93847.72;;;9.27;100.00
23164;BME280;31429;42.674;23.350;2023-04-25T03:29:30;93855.16;;;9.32;100.00
23164;BME280;31429;42.674;23.350;2023-04-25T03:30:30;93863.41;;;9.37;100.00
23164;BME280;31429;42.674;23.350;2023-04-25T03:31:31;93861.09;;;9.32;100.00
23164;BME280;31429;42.674;23.350;2023-04-25T03:32:32;93856.88;;;9.31;100.00
23164;BME280;31429;42.674;23.350;2023-04-25T03:33:32;93858.47;;;9.34;100.00
23164;BME280;31429;42.674;23.350;2023-04-25T03:34:33;93862.28;;;9.25;100.00
23164;BME280;31429;42.674;23.350;2023-04-25T03:35:33;93855.38;;;9.27;100.00
23164;BME280;31429;42.674;23.350;2023-04-25T03:36:34;93852.47;;;9.35;100.00
23164;BME280;31429;42.674;23.350;2023-04-25T03:37:35;93857.03;;;9.45;100.00
23164;BME280;31429;42.674;23.350;2023-04-25T03:38:37;93857.72;;;9.49;100.00
23164;BME280;31429;42.674;23.350;2023-04-25T03:39:38;93863.53;;;9.52;100.00
23164;BME280;31429;42.674;23.350;2023-04-25T03:40:38;93867.34;;;9.61;100.00
23164;BME280;31429;42.674;23.350;2023-04-25T03:41:39;93864.94;;;9.58;100.00
23164;BME280;31429;42.674;23.350;2023-04-25T03:42:40;93866.53;;;9.60;100.00
23164;BME280;31429;42.674;23.350;2023-04-25T03:43:40;93863.00;;;9.63;100.00
23164;BME280;31429;42.674;23.350;2023-04-25T03:44:41;93858.56;;;9.66;100.00
23164;BME280;31429;42.674;23.350;2023-04-25T03:45:42;93868.56;;;9.71;100.00
23164;BME280;31429;42.674;23.350;2023-04-25T03:46:42;93864.44;;;9.68;100.00
23164;BME280;31429;42.674;23.350;2023-04-25T03:47:43;93868.19;;;9.78;100.00
23164;BME280;31429;42.674;23.350;2023-04-25T03:48:44;93863.69;;;9.83;100.00
23164;BME280;31429;42.674;23.350;2023-04-25T03:49:44;93855.13;;;9.85;100.00
23164;BME280;31429;42.674;23.350;2023-04-25T03:50:45;93862.56;;;9.89;100.00
23164;BME280;31429;42.674;23.350;2023-04-25T03:51:46;93857.31;;;9.92;100.00
23164;BME280;31429;42.674;23.350;2023-04-25T03:52:46;93864.88;;;9.94;100.00
23164;BME280;31429;42.674;23.350;2023-04-25T03:53:49;93858.34;;;9.88;100.00
23164;BME280;31429;42.674;23.350;2023-04-25T03:54:50;93858.13;;;9.93;100.00
23164;BME280;31429;42.674;23.350;2023-04-25T03:55:50;93861.13;;;10.01;100.00
23164;BME280;31429;42.674;23.350;2023-04-25T03:56:52;93860.72;;;10.08;100.00
23164;BME280;31429;42.674;23.350;2023-04-25T03:57:52;93850.66;;;10.05;100.00
23164;BME280;31429;42.674;23.350;2023-04-25T03:58:53;93854.16;;;10.04;100.00
23164;BME280;31429;42.674;23.350;2023-04-25T03:59:53;93851.13;;;10.13;100.00
23164;BME280;31429;42.674;23.350;2023-04-25T04:00:54;93859.19;;;10.23;100.00
23164;BME280;31429;42.674;23.350;2023-04-25T04:01:55;93860.59;;;10.28;100.00
23164;BME280;31429;42.674;23.350;2023-04-25T04:02:55;93859.69;;;10.29;100.00
23164;BME280;31429;42.674;23.350;2023-04-25T04:03:56;93853.91;;;10.26;100.00
23164;BME280;31429;42.674;23.350;2023-04-25T04:04:57;93853.06;;;10.25;100.00
23164;BME280;31429;42.674;23.350;2023-04-25T04:05:58;93860.00;;;10.23;100.00
23164;BME280;31429;42.674;23.350;2023-04-25T04:06:59;93859.91;;;10.25;100.00
23164;BME280;31429;42.674;23.350;2023-04-25T04:08:00;93864.13;;;10.26;100.00
23164;BME280;31429;42.674;23.350;2023-04-25T04:09:02;93865.69;;;10.28;100.00
23164;BME280;31429;42.674;23.350;2023-04-25T04:10:04;93865.13;;;10.39;100.00
23164;BME280;31429;42.674;23.350;2023-04-25T04:11:05;93869.50;;;10.37;100.00
23164;BME280;31429;42.674;23.350;2023-04-25T04:12:06;93872.81;;;10.39;100.00
23164;BME280;31429;42.674;23.350;2023-04-25T04:13:07;93870.09;;;10.42;100.00
23164;BME280;31429;42.674;23.350;2023-04-25T04:14:08;93873.59;;;10.57;100.00
23164;BME280;31429;42.674;23.350;2023-04-25T04:15:09;93873.88;;;10.68;100.00
23164;BME280;31429;42.674;23.350;2023-04-25T04:16:10;93879.75;;;10.70;100.00
23164;BME280;31429;42.674;23.350;2023-04-25T04:17:11;93877.66;;;10.61;100.00
23164;BME280;31429;42.674;23.350;2023-04-25T04:18:11;93878.81;;;10.55;100.00
23164;BME280;31429;42.674;23.350;2023-04-25T04:19:12;93874.91;;;10.48;100.00
23164;BME280;31429;42.674;23.350;2023-04-25T04:20:13;93869.72;;;10.50;100.00
23164;BME280;31429;42.674;23.350;2023-04-25T04:21:13;93868.31;;;10.60;100.00
23164;BME280;31429;42.674;23.350;2023-04-25T04:22:15;93880.63;;;10.69;100.00
23164;BME280;31429;42.674;23.350;2023-04-25T04:23:16;93881.06;;;10.77;100.00
23164;BME280;31429;42.674;23.350;2023-04-25T04:24:18;93879.66;;;10.71;100.00
23164;BME280;31429;42.674;23.350;2023-04-25T04:25:18;93871.72;;;10.76;100.00
23164;BME280;31429;42.674;23.350;2023-04-25T04:26:19;93878.59;;;10.75;100.00
23164;BME280;31429;42.674;23.350;2023-04-25T04:27:23;93872.97;;;10.84;100.00
23164;BME280;31429;42.674;23.350;2023-04-25T04:28:24;93865.56;;;10.80;100.00
23164;BME280;31429;42.674;23.350;2023-04-25T04:29:25;93865.56;;;10.80;100.00
23164;BME280;31429;42.674;23.350;2023-04-25T04:30:26;93865.25;;;10.86;100.00
23164;BME280;31429;42.674;23.350;2023-04-25T04:31:31;93865.81;;;10.91;100.00
23164;BME280;31429;42.674;23.350;2023-04-25T04:32:33;93873.91;;;10.83;100.00
23164;BME280;31429;42.674;23.350;2023-04-25T04:33:34;93867.06;;;10.84;100.00
23164;BME280;31429;42.674;23.350;2023-04-25T04:34:35;93866.28;;;10.82;100.00
23164;BME280;31429;42.674;23.350;2023-04-25T04:35:36;93868.94;;;10.80;100.00
23164;BME280;31429;42.674;23.350;2023-04-25T04:36:37;93863.41;;;10.88;100.00
23164;BME280;31429;42.674;23.350;2023-04-25T04:37:37;93866.06;;;10.86;100.00
23164;BME280;31429;42.674;23.350;2023-04-25T04:38:38;93862.59;;;10.87;100.00
23164;BME280;31429;42.674;23.350;2023-04-25T04:39:40;93864.00;;;10.93;100.00
23164;BME280;31429;42.674;23.350;2023-04-25T04:40:41;93858.56;;;10.99;100.00
23164;BME280;31429;42.674;23.350;2023-04-25T04:41:43;93854.78;;;11.06;100.00
23164;BME280;31429;42.674;23.350;2023-04-25T04:42:44;93861.63;;;11.06;100.00
23164;BME280;31429;42.674;23.350;2023-04-25T04:43:48;93867.56;;;11.06;100.00
23164;BME280;31429;42.674;23.350;2023-04-25T04:44:49;93863.34;;;11.05;100.00
23164;BME280;31429;42.674;23.350;2023-04-25T04:45:50;93860.13;;;11.02;100.00
23164;BME280;31429;42.674;23.350;2023-04-25T04:46:51;93871.19;;;11.02;100.00
23164;BME280;31429;42.674;23.350;2023-04-25T04:47:52;93875.16;;;10.92;100.00
23164;BME280;31429;42.674;23.350;2023-04-25T04:48:52;93871.75;;;10.91;100.00
23164;BME280;31429;42.674;23.350;2023-04-25T04:49:53;93867.94;;;10.98;100.00
23164;BME280;31429;42.674;23.350;2023-04-25T04:50:54;93877.03;;;11.04;100.00
23164;BME280;31429;42.674;23.350;2023-04-25T04:51:55;93878.03;;;11.02;100.00
23164;BME280;31429;42.674;23.350;2023-04-25T04:52:55;93876.72;;;10.94;100.00
23164;BME280;31429;42.674;23.350;2023-04-25T04:53:56;93871.81;;;10.90;100.00
23164;BME280;31429;42.674;23.350;2023-04-25T04:55:00;93876.47;;;10.83;100.00
23164;BME280;31429;42.674;23.350;2023-04-25T04:56:00;93875.06;;;10.93;100.00
23164;BME280;31429;42.674;23.350;2023-04-25T04:57:01;93883.66;;;10.92;100.00
23164;BME280;31429;42.674;23.350;2023-04-25T04:58:02;93881.97;;;10.91;100.00
23164;BME280;31429;42.674;23.350;2023-04-25T04:59:02;93886.84;;;10.96;100.00
23164;BME280;31429;42.674;23.350;2023-04-25T05:00:04;93887.09;;;11.07;100.00
23164;BME280;31429;42.674;23.350;2023-04-25T05:01:05;93877.69;;;11.08;100.00
23164;BME280;31429;42.674;23.350;2023-04-25T05:02:06;93889.66;;;11.07;100.00
23164;BME280;31429;42.674;23.350;2023-04-25T05:03:07;93886.09;;;11.10;100.00
23164;BME280;31429;42.674;23.350;2023-04-25T05:04:07;93888.25;;;11.02;100.00
23164;BME280;31429;42.674;23.350;2023-04-25T05:05:08;93885.47;;;11.06;100.00
23164;BME280;31429;42.674;23.350;2023-04-25T05:06:09;93883.13;;;11.02;100.00
23164;BME280;31429;42.674;23.350;2023-04-25T05:07:10;93889.09;;;11.02;100.00
23164;BME280;31429;42.674;23.350;2023-04-25T05:08:10;93894.19;;;11.02;100.00
23164;BME280;31429;42.674;23.350;2023-04-25T05:09:11;93886.03;;;11.11;100.00
23164;BME280;31429;42.674;23.350;2023-04-25T05:10:13;93890.75;;;11.03;100.00
23164;BME280;31429;42.674;23.350;2023-04-25T05:11:14;93894.94;;;11.04;100.00
23164;BME280;31429;42.674;23.350;2023-04-25T05:12:14;93893.28;;;11.03;100.00
23164;BME280;31429;42.674;23.350;2023-04-25T05:13:15;93903.22;;;11.09;100.00
23164;BME280;31429;42.674;23.350;2023-04-25T05:14:15;93905.00;;;11.07;100.00
23164;BME280;31429;42.674;23.350;2023-04-25T05:15:17;93898.31;;;11.05;100.00
23164;BME280;31429;42.674;23.350;2023-04-25T05:16:17;93903.44;;;11.05;100.00